Time;durP1;ratioP1;P1;durP2;ratioP2;P2;SDS_P1;SDS_P2;PMS_P1;PMS_P2;Temp;Humidity;BMP_temperature;BMP_pressure;BME280_temperature;BME280_humidity;BME280_pressure;Samples;Min_cycle;Max_cycle;Signal;HPM_P1;HPM_P2
2023/12/09 00:00:08;;;;;;;71.40;36.60;;;;;;;-2.70;100.00;99082.45;109297;1251;59025;-74
2023/12/09 00:02:54;;;;;;;79.40;37.90;;;;;;;-2.72;100.00;99087.70;109359;1250;67521;-74
2023/12/09 00:05:21;;;;;;;77.70;39.00;;;;;;;-2.74;100.00;99086.50;109603;1250;60356;-74
2023/12/09 00:07:48;;;;;;;76.90;38.90;;;;;;;-2.78;100.00;99080.11;109589;1251;64095;-74
2023/12/09 00:10:14;;;;;;;76.40;37.80;;;;;;;-2.81;100.00;99076.84;109314;1251;60058;-74
2023/12/09 00:12:41;;;;;;;68.80;37.20;;;;;;;-2.82;100.00;99077.38;109601;1251;59033;-75
2023/12/09 00:15:08;;;;;;;87.80;44.80;;;;;;;-2.82;100.00;99078.76;109535;1251;65887;-75
2023/12/09 00:17:35;;;;;;;73.80;41.00;;;;;;;-2.81;100.00;99080.85;109610;1251;60018;-75
2023/12/09 00:20:05;;;;;;;82.50;41.20;;;;;;;-2.82;100.00;99081.55;109575;1251;65058;-74
2023/12/09 00:22:32;;;;;;;83.40;41.60;;;;;;;-2.81;100.00;99084.15;109575;1251;58934;-74
2023/12/09 00:24:58;;;;;;;88.30;42.20;;;;;;;-2.83;100.00;99082.42;109562;1251;58902;-74
2023/12/09 00:27:25;;;;;;;74.40;39.80;;;;;;;-2.84;100.00;99077.75;109579;1251;66130;-74
2023/12/09 00:29:52;;;;;;;77.80;38.70;;;;;;;-2.84;100.00;99082.96;109580;1251;59995;-75
2023/12/09 00:32:19;;;;;;;80.10;41.20;;;;;;;-2.84;100.00;99086.45;108560;1251;1002353;-74
2023/12/09 00:34:45;;;;;;;82.70;39.60;;;;;;;-2.84;100.00;99083.83;109549;1251;59015;-75
2023/12/09 00:37:12;;;;;;;103.90;39.20;;;;;;;-2.86;100.00;99081.94;109572;1251;58839;-75
2023/12/09 00:39:39;;;;;;;77.50;36.10;;;;;;;-2.89;100.00;99087.18;109550;1250;67065;-75
2023/12/09 00:42:05;;;;;;;88.30;38.70;;;;;;;-2.93;100.00;99091.59;109372;1251;60124;-76
2023/12/09 00:44:32;;;;;;;75.30;39.50;;;;;;;-3.00;100.00;99089.41;109548;1251;64051;-74
2023/12/09 00:46:59;;;;;;;77.30;37.70;;;;;;;-3.01;100.00;99089.41;109325;1251;58998;-75
2023/12/09 00:49:25;;;;;;;89.20;43.00;;;;;;;-3.00;100.00;99093.23;109641;1251;59174;-75
2023/12/09 00:51:52;;;;;;;82.10;39.50;;;;;;;-2.99;100.00;99097.04;109565;1251;66975;-76
2023/12/09 00:54:18;;;;;;;84.30;42.20;;;;;;;-3.00;100.00;99099.84;109574;1251;61117;-75
2023/12/09 00:56:45;;;;;;;78.90;41.70;;;;;;;-3.01;100.00;99101.05;109566;1251;65077;-75
2023/12/09 00:59:11;;;;;;;82.10;42.40;;;;;;;-2.99;100.00;99102.08;109581;1251;58964;-75
2023/12/09 01:01:38;;;;;;;79.70;40.90;;;;;;;-2.99;100.00;99101.90;109544;1251;59002;-75
2023/12/09 01:04:05;;;;;;;84.10;42.90;;;;;;;-2.99;100.00;99098.77;109355;1251;67281;-75
2023/12/09 01:06:32;;;;;;;80.30;40.40;;;;;;;-2.99;100.00;99100.87;109589;1251;60850;-75
2023/12/09 01:08:59;;;;;;;88.50;45.20;;;;;;;-3.01;100.00;99100.53;109601;1251;64036;-75
2023/12/09 01:11:25;;;;;;;87.40;40.40;;;;;;;-3.03;100.00;99101.07;109560;1251;59197;-75
2023/12/09 01:13:52;;;;;;;88.80;42.60;;;;;;;-3.03;100.00;99097.78;109558;1251;59024;-75
2023/12/09 01:16:18;;;;;;;96.20;43.10;;;;;;;-3.00;100.00;99095.14;109389;1251;65970;-75
2023/12/09 01:18:45;;;;;;;95.20;42.30;;;;;;;-3.00;100.00;99094.27;109575;1251;61008;-74
2023/12/09 01:21:11;;;;;;;118.80;45.80;;;;;;;-3.01;100.00;99096.70;109566;1251;65123;-74
2023/12/09 01:23:39;;;;;;;116.20;46.00;;;;;;;-3.05;100.00;99099.18;109524;1251;59281;-74
2023/12/09 01:26:07;;;;;;;93.60;44.20;;;;;;;-3.08;100.00;99100.27;109555;1251;58962;-75
2023/12/09 01:28:34;;;;;;;112.50;50.10;;;;;;;-3.08;100.00;99100.61;109541;1253;65785;-75
2023/12/09 01:31:00;;;;;;;118.50;48.70;;;;;;;-3.07;100.00;99095.55;109592;1250;61404;-75
2023/12/09 01:33:27;;;;;;;103.50;50.10;;;;;;;-3.09;100.00;99097.85;109553;1251;64963;-74
2023/12/09 01:35:54;;;;;;;99.60;43.70;;;;;;;-3.09;100.00;99102.52;109528;1251;58924;-74
2023/12/09 01:38:20;;;;;;;89.10;45.00;;;;;;;-3.10;100.00;99106.00;109614;1251;59029;-75
2023/12/09 01:40:54;;;;;;;97.70;47.40;;;;;;;-3.11;100.00;99109.32;109583;1251;65986;-75
2023/12/09 01:43:22;;;;;;;98.10;44.20;;;;;;;-3.11;100.00;99108.11;109548;1251;60315;-74
2023/12/09 01:45:51;;;;;;;102.80;45.60;;;;;;;-3.12;100.00;99110.37;109563;1251;64991;-74
2023/12/09 01:48:18;;;;;;;101.70;46.10;;;;;;;-3.11;100.00;99110.20;109537;1251;60793;-74
2023/12/09 01:50:46;;;;;;;108.20;48.40;;;;;;;-3.09;100.00;99115.03;109549;1251;59015;-74
2023/12/09 01:53:12;;;;;;;103.90;47.00;;;;;;;-3.08;100.00;99112.08;109533;1251;65955;-74
2023/12/09 01:55:41;;;;;;;98.90;45.80;;;;;;;-3.10;100.00;99110.02;109594;1251;61123;-74
2023/12/09 01:58:09;;;;;;;86.30;42.60;;;;;;;-3.09;100.00;99111.91;109377;1251;64738;-75
2023/12/09 02:00:38;;;;;;;90.20;43.80;;;;;;;-3.07;100.00;99113.80;108786;1251;1002594;-74
2023/12/09 02:03:05;;;;;;;88.20;45.20;;;;;;;-3.07;100.00;99111.20;109595;1251;58983;-76
2023/12/09 02:05:32;;;;;;;94.30;45.10;;;;;;;-3.07;100.00;99108.25;109429;1251;66035;-75
2023/12/09 02:07:59;;;;;;;85.20;41.50;;;;;;;-3.09;100.00;99109.13;109589;1251;60048;-75
2023/12/09 02:10:26;;;;;;;92.60;44.80;;;;;;;-3.11;100.00;99106.72;109543;1251;65266;-75
2023/12/09 02:13:08;;;;;;;91.00;45.10;;;;;;;-3.11;100.00;99107.24;109533;1251;59339;-75
2023/12/09 02:15:45;;;;;;;97.80;48.10;;;;;;;-3.10;100.00;99108.63;109617;1251;59048;-74
2023/12/09 02:18:12;;;;;;;88.00;45.10;;;;;;;-3.11;100.00;99106.55;108784;1251;1002230;-75
2023/12/09 02:20:38;;;;;;;105.10;48.70;;;;;;;-3.10;100.00;99104.27;109570;1250;60909;-75
2023/12/09 02:23:10;;;;;;;102.60;45.70;;;;;;;-3.12;100.00;99106.90;109552;1251;63631;-75
2023/12/09 02:25:38;;;;;;;99.50;45.60;;;;;;;-3.14;100.00;99109.00;109530;1251;59008;-75
2023/12/09 02:28:12;;;;;;;93.20;45.80;;;;;;;-3.14;100.00;99106.05;109319;1251;59297;-75
2023/12/09 02:30:50;;;;;;;90.80;42.80;;;;;;;-3.16;100.00;99105.03;109541;1251;67116;-75
2023/12/09 02:33:18;;;;;;;80.90;40.60;;;;;;;-3.17;100.00;99102.08;109291;1251;61478;-74
2023/12/09 02:35:47;;;;;;;85.90;42.30;;;;;;;-3.16;100.00;99104.17;108771;1251;1002460;-75
2023/12/09 02:38:16;;;;;;;82.80;40.20;;;;;;;-3.18;100.00;99103.66;109525;1251;58930;-73
2023/12/09 02:40:44;;;;;;;77.10;39.50;;;;;;;-3.21;100.00;99105.95;109563;1251;59007;-74
2023/12/09 02:43:12;;;;;;;84.90;42.00;;;;;;;-3.21;100.00;99104.90;109572;1251;65976;-74
2023/12/09 02:45:40;;;;;;;94.30;43.60;;;;;;;-3.21;100.00;99102.83;109603;1251;60076;-75
2023/12/09 02:48:06;;;;;;;89.50;42.30;;;;;;;-3.24;100.00;99102.33;109606;1251;64767;-75
2023/12/09 02:50:33;;;;;;;99.70;43.90;;;;;;;-3.26;100.00;99102.70;109556;1252;59003;-74
2023/12/09 02:52:59;;;;;;;95.00;44.70;;;;;;;-3.29;100.00;99103.25;109549;1251;59011;-75
2023/12/09 02:55:26;;;;;;;99.90;45.40;;;;;;;-3.31;100.00;99103.10;109558;1251;67034;-75
2023/12/09 02:57:53;;;;;;;90.00;43.60;;;;;;;-3.33;100.00;99099.30;109384;1251;60233;-75
2023/12/09 03:00:31;;;;;;;93.30;43.50;;;;;;;-3.34;100.00;99102.77;109375;1254;64236;-74
2023/12/09 03:02:58;;;;;;;91.50;42.40;;;;;;;-3.38;100.00;99101.59;109560;1251;59314;-74
2023/12/09 03:05:25;;;;;;;87.90;42.40;;;;;;;-3.43;100.00;99103.02;108774;1251;1002474;-75
2023/12/09 03:07:52;;;;;;;86.80;40.50;;;;;;;-3.45;100.00;99103.91;108510;1250;1002446;-75
2023/12/09 03:10:18;;;;;;;92.20;43.10;;;;;;;-3.47;100.00;99105.33;109609;1250;61134;-75
2023/12/09 03:12:45;;;;;;;77.20;39.20;;;;;;;-3.48;100.00;99104.28;109552;1251;65148;-74
2023/12/09 03:15:11;;;;;;;100.20;44.90;;;;;;;-3.48;100.00;99103.08;109422;1251;59296;-75
2023/12/09 03:17:38;;;;;;;108.60;48.80;;;;;;;-3.50;100.00;99106.21;109520;1251;59014;-75
2023/12/09 03:20:08;;;;;;;90.30;42.90;;;;;;;-3.50;100.00;99110.91;109575;1250;66118;-75
2023/12/09 03:22:35;;;;;;;121.50;44.30;;;;;;;-3.54;100.00;99113.02;108754;1251;1002944;-75
2023/12/09 03:25:02;;;;;;;90.50;45.00;;;;;;;-3.58;100.00;99110.45;109292;1251;64096;-75
2023/12/09 03:27:28;;;;;;;92.10;43.00;;;;;;;-3.61;100.00;99108.21;109512;1253;58987;-74
2023/12/09 03:29:55;;;;;;;116.40;50.10;;;;;;;-3.62;100.00;99104.58;109579;1253;58945;-75
2023/12/09 03:32:21;;;;;;;94.30;47.40;;;;;;;-3.61;100.00;99102.31;109607;1251;67234;-74
2023/12/09 03:34:48;;;;;;;90.20;43.70;;;;;;;-3.60;100.00;99100.58;109602;1251;61022;-75
2023/12/09 03:37:15;;;;;;;89.40;42.50;;;;;;;-3.59;100.00;99099.69;109557;1251;63953;-75
2023/12/09 03:39:41;;;;;;;105.90;46.20;;;;;;;-3.57;100.00;99100.02;109571;1251;59085;-73
2023/12/09 03:42:08;;;;;;;99.50;44.00;;;;;;;-3.58;100.00;99104.89;109536;1251;59003;-74
2023/12/09 03:44:35;;;;;;;120.00;50.60;;;;;;;-3.57;100.00;99097.23;109550;1250;67074;-74
2023/12/09 03:47:04;;;;;;;99.80;47.20;;;;;;;-3.57;100.00;99091.87;109606;1251;60868;-75
2023/12/09 03:49:31;;;;;;;101.10;46.50;;;;;;;-3.58;100.00;99094.80;109324;1251;64078;-74
2023/12/09 03:51:58;;;;;;;95.30;47.00;;;;;;;-3.59;100.00;99093.08;109563;1251;59264;-75
2023/12/09 03:54:25;;;;;;;104.50;50.60;;;;;;;-3.59;100.00;99094.30;109556;1251;58960;-74
2023/12/09 03:56:53;;;;;;;108.30;47.60;;;;;;;-3.61;100.00;99096.92;109473;1251;173684;-74
2023/12/09 03:59:19;;;;;;;100.90;46.80;;;;;;;-3.64;100.00;99101.82;109630;1250;60169;-74
2023/12/09 04:01:48;;;;;;;88.10;44.60;;;;;;;-3.68;100.00;99106.18;109611;1251;64235;-74
2023/12/09 04:04:15;;;;;;;97.20;47.50;;;;;;;-3.72;100.00;99104.30;109581;1251;59015;-74
2023/12/09 04:06:42;;;;;;;84.60;42.50;;;;;;;-3.74;100.00;99105.02;109560;1251;59111;-74
2023/12/09 04:09:11;;;;;;;92.20;43.60;;;;;;;-3.77;100.00;99104.17;109583;1254;66716;-75
2023/12/09 04:11:38;;;;;;;106.20;45.40;;;;;;;-3.79;100.00;99105.05;109607;1251;60892;-76
2023/12/09 04:14:05;;;;;;;87.50;43.40;;;;;;;-3.80;100.00;99106.45;109512;1251;65272;-75
2023/12/09 04:16:32;;;;;;;90.50;44.30;;;;;;;-3.83;100.00;99102.31;109532;1251;59039;-76
2023/12/09 04:18:58;;;;;;;97.90;45.90;;;;;;;-3.84;100.00;99102.85;109586;1251;58957;-74
2023/12/09 04:21:25;;;;;;;106.90;47.20;;;;;;;-3.84;100.00;99108.56;109550;1251;67115;-74
2023/12/09 04:23:51;;;;;;;98.80;45.70;;;;;;;-3.82;100.00;99112.73;109565;1251;60118;-75
2023/12/09 04:26:18;;;;;;;101.20;46.50;;;;;;;-3.82;100.00;99106.30;109551;1251;65181;-75
2023/12/09 04:28:46;;;;;;;103.30;46.70;;;;;;;-3.83;100.00;99096.75;109534;1251;59004;-74
2023/12/09 04:31:12;;;;;;;105.50;46.10;;;;;;;-3.83;100.00;99106.12;109339;1251;59076;-76
2023/12/09 04:33:39;;;;;;;106.70;50.10;;;;;;;-3.83;100.00;99105.25;109614;1251;67048;-75
2023/12/09 04:36:06;;;;;;;97.90;44.70;;;;;;;-3.83;100.00;99098.14;109240;1251;60983;-75
2023/12/09 04:38:32;;;;;;;93.50;42.70;;;;;;;-3.86;100.00;99093.82;109307;1251;65370;-74
2023/12/09 04:40:59;;;;;;;99.60;48.40;;;;;;;-3.90;100.00;99095.07;109538;1251;58930;-74
2023/12/09 04:43:27;;;;;;;111.50;47.50;;;;;;;-3.92;100.00;99094.74;108796;1251;1002419;-74
2023/12/09 04:45:53;;;;;;;98.20;44.40;;;;;;;-3.96;100.00;99100.84;109540;1251;66976;-74
2023/12/09 04:48:20;;;;;;;94.40;47.10;;;;;;;-3.99;100.00;99101.04;109577;1250;69616;-74
2023/12/09 04:50:47;;;;;;;94.90;45.10;;;;;;;-4.01;100.00;99097.91;109533;1251;65187;-74
2023/12/09 04:53:14;;;;;;;106.20;47.50;;;;;;;-4.03;100.00;99099.48;109301;1251;58975;-74
2023/12/09 04:55:41;;;;;;;94.80;44.70;;;;;;;-4.04;100.00;99101.06;109320;1251;59461;-74
2023/12/09 04:58:07;;;;;;;97.60;43.00;;;;;;;-4.05;100.00;99101.23;108782;1251;1002523;-75
2023/12/09 05:00:34;;;;;;;101.10;46.70;;;;;;;-4.08;100.00;99097.61;108785;1251;1002897;-75
2023/12/09 05:03:01;;;;;;;114.20;55.20;;;;;;;-4.09;100.00;99098.85;108768;1251;1002789;-75
2023/12/09 05:05:27;;;;;;;104.70;49.40;;;;;;;-4.10;100.00;99101.45;109556;1251;58967;-75
2023/12/09 05:07:54;;;;;;;92.40;44.30;;;;;;;-4.09;100.00;99099.01;108789;1251;1002729;-74
2023/12/09 05:10:21;;;;;;;104.20;49.70;;;;;;;-4.10;100.00;99096.42;109564;1251;59025;-76
2023/12/09 05:12:48;;;;;;;121.90;56.00;;;;;;;-4.11;100.00;99095.39;109537;1250;61146;-73
2023/12/09 05:15:14;;;;;;;104.30;49.20;;;;;;;-4.11;100.00;99095.55;109586;1251;65058;-74
2023/12/09 05:17:41;;;;;;;98.90;47.30;;;;;;;-4.11;100.00;99093.64;108786;1251;1003087;-75
2023/12/09 05:20:09;;;;;;;101.00;47.60;;;;;;;-4.12;100.00;99092.79;109572;1250;58951;-74
2023/12/09 05:22:37;;;;;;;110.20;50.10;;;;;;;-4.13;100.00;99097.11;109603;1251;65662;-74
2023/12/09 05:25:04;;;;;;;99.20;45.80;;;;;;;-4.13;100.00;99104.94;109587;1251;61140;-75
2023/12/09 05:27:31;;;;;;;87.30;46.20;;;;;;;-4.13;100.00;99108.05;109558;1251;65045;-75
2023/12/09 05:29:58;;;;;;;85.10;42.30;;;;;;;-4.15;100.00;99103.91;109535;1251;59024;-75
2023/12/09 05:32:24;;;;;;;101.20;51.10;;;;;;;-4.19;100.00;99102.53;109592;1251;58886;-75
2023/12/09 05:34:51;;;;;;;104.70;50.30;;;;;;;-4.20;100.00;99102.55;109568;1251;67086;-74
2023/12/09 05:37:17;;;;;;;92.90;45.60;;;;;;;-4.18;100.00;99106.71;109384;1257;60046;-74
2023/12/09 05:39:44;;;;;;;105.50;49.20;;;;;;;-4.19;100.00;99108.10;109525;1251;63997;-74
2023/12/09 05:42:11;;;;;;;95.90;44.50;;;;;;;-4.21;100.00;99108.80;109222;1250;59310;-75
2023/12/09 05:44:38;;;;;;;88.10;44.20;;;;;;;-4.22;100.00;99108.11;108785;1251;1002407;-74
2023/12/09 05:47:04;;;;;;;94.50;44.60;;;;;;;-4.22;100.00;99110.20;108824;1251;1002555;-74
2023/12/09 05:49:31;;;;;;;93.30;47.50;;;;;;;-4.24;100.00;99111.41;108864;1250;1003104;-75
2023/12/09 05:51:57;;;;;;;93.90;48.20;;;;;;;-4.25;100.00;99115.58;108823;1251;1002199;-75
2023/12/09 05:54:24;;;;;;;85.60;44.10;;;;;;;-4.26;100.00;99113.34;108835;1251;1002352;-75
2023/12/09 05:56:51;;;;;;;89.90;45.90;;;;;;;-4.27;100.00;99112.65;108835;1251;1002836;-75
2023/12/09 05:59:17;;;;;;;109.50;51.90;;;;;;;-4.29;100.00;99108.31;109537;1251;58989;-74
2023/12/09 06:01:44;;;;;;;104.50;50.40;;;;;;;-4.27;100.00;99107.96;109603;1251;59210;-74
2023/12/09 06:04:10;;;;;;;94.90;46.90;;;;;;;-4.27;100.00;99106.05;109529;1251;59457;-75
2023/12/09 06:06:37;;;;;;;122.00;55.10;;;;;;;-4.27;100.00;99113.16;108779;1251;1002293;-75
2023/12/09 06:09:04;;;;;;;110.00;52.50;;;;;;;-4.27;100.00;99115.42;108824;1251;1002713;-75
2023/12/09 06:11:31;;;;;;;98.60;46.00;;;;;;;-4.27;100.00;99116.48;109594;1251;66690;-74
2023/12/09 06:13:58;;;;;;;95.20;45.90;;;;;;;-4.28;100.00;99113.88;109564;1251;60157;-75
2023/12/09 06:16:24;;;;;;;94.30;44.60;;;;;;;-4.29;100.00;99111.45;108796;1251;1002802;-74
2023/12/09 06:18:51;;;;;;;91.20;46.40;;;;;;;-4.30;100.00;99110.93;108797;1251;1002406;-74
2023/12/09 06:21:19;;;;;;;86.50;44.10;;;;;;;-4.29;100.00;99107.45;108830;1251;1002368;-75
2023/12/09 06:23:46;;;;;;;105.80;53.40;;;;;;;-4.29;100.00;99111.79;109537;1251;66183;-74
2023/12/09 06:26:13;;;;;;;119.00;58.30;;;;;;;-4.27;100.00;99111.78;109557;1251;61057;-75
2023/12/09 06:28:39;;;;;;;135.00;63.50;;;;;;;-4.25;100.00;99107.95;109543;1251;65244;-74
2023/12/09 06:31:06;;;;;;;122.90;59.30;;;;;;;-4.25;100.00;99107.08;109519;1251;58923;-74
2023/12/09 06:33:33;;;;;;;127.60;60.60;;;;;;;-4.25;100.00;99106.57;109564;1251;59771;-75
2023/12/09 06:36:00;;;;;;;128.30;61.60;;;;;;;-4.26;100.00;99108.65;109516;1251;66973;-74
2023/12/09 06:38:27;;;;;;;109.30;54.40;;;;;;;-4.24;100.00;99105.52;109589;1251;59732;-74
2023/12/09 06:40:54;;;;;;;111.80;55.80;;;;;;;-4.24;100.00;99103.78;109542;1251;65056;-75
2023/12/09 06:43:21;;;;;;;107.30;55.00;;;;;;;-4.24;100.00;99100.31;109590;1251;59354;-74
2023/12/09 06:45:48;;;;;;;96.40;51.30;;;;;;;-4.23;100.00;99099.78;109552;1251;58895;-75
2023/12/09 06:48:14;;;;;;;111.90;57.70;;;;;;;-4.22;100.00;99098.56;108846;1251;1002320;-74
2023/12/09 06:50:42;;;;;;;114.60;57.30;;;;;;;-4.19;100.00;99099.25;108775;1251;1002360;-75
2023/12/09 06:53:13;;;;;;;102.30;51.60;;;;;;;-4.18;100.00;99102.54;109566;1251;64077;-75
2023/12/09 06:55:40;;;;;;;113.60;59.60;;;;;;;-4.14;100.00;99104.25;109518;1251;59165;-73
2023/12/09 06:58:06;;;;;;;109.10;56.30;;;;;;;-4.11;100.00;99105.97;109246;1251;59032;-74
2023/12/09 07:00:33;;;;;;;87.50;48.80;;;;;;;-4.08;100.00;99105.42;109528;1250;67079;-74
2023/12/09 07:03:00;;;;;;;93.70;47.70;;;;;;;-4.04;100.00;99100.70;109309;1251;60106;-75
2023/12/09 07:05:27;;;;;;;87.60;47.60;;;;;;;-4.01;100.00;99099.48;109535;1251;64983;-74
2023/12/09 07:07:53;;;;;;;91.00;47.30;;;;;;;-3.97;100.00;99095.12;109568;1251;58985;-75
2023/12/09 07:10:20;;;;;;;98.50;50.70;;;;;;;-3.94;100.00;99096.83;109554;1251;59003;-75
2023/12/09 07:12:47;;;;;;;97.50;48.80;;;;;;;-3.92;100.00;99095.77;109588;1251;66984;-74
2023/12/09 07:15:13;;;;;;;88.60;47.70;;;;;;;-3.89;100.00;99087.60;109540;1251;60004;-74
2023/12/09 07:17:40;;;;;;;102.90;51.30;;;;;;;-3.85;100.00;99086.70;109604;1251;65019;-74
2023/12/09 07:20:07;;;;;;;99.30;52.20;;;;;;;-3.81;100.00;99088.23;109541;1251;58954;-76
2023/12/09 07:22:34;;;;;;;95.70;50.40;;;;;;;-3.74;100.00;99088.52;109552;1251;58920;-76
2023/12/09 07:25:00;;;;;;;97.50;51.50;;;;;;;-3.68;100.00;99085.87;109559;1251;66172;-74
2023/12/09 07:27:27;;;;;;;86.40;46.60;;;;;;;-3.62;100.00;99082.17;109547;1251;60142;-75
2023/12/09 07:29:53;;;;;;;83.50;44.20;;;;;;;-3.58;100.00;99088.04;109516;1251;64287;-74
2023/12/09 07:32:20;;;;;;;87.20;46.00;;;;;;;-3.53;100.00;99086.10;109557;1251;58874;-75
2023/12/09 07:34:46;;;;;;;81.20;43.10;;;;;;;-3.47;100.00;99080.32;109387;1251;59138;-74
2023/12/09 07:37:14;;;;;;;82.70;44.60;;;;;;;-3.41;100.00;99080.77;109553;1251;67179;-75
2023/12/09 07:39:41;;;;;;;111.10;60.20;;;;;;;-3.33;100.00;99081.40;109579;1251;60009;-76
2023/12/09 07:42:08;;;;;;;102.60;62.50;;;;;;;-3.26;100.00;99086.20;109376;1251;65070;-74
2023/12/09 07:44:34;;;;;;;102.30;59.90;;;;;;;-3.20;100.00;99091.87;109558;1251;59001;-76
2023/12/09 07:47:01;;;;;;;92.00;51.10;;;;;;;-3.10;100.00;99099.07;109529;1255;59068;-75
2023/12/09 07:49:27;;;;;;;94.00;52.60;;;;;;;-2.99;100.00;99101.20;109556;1251;66053;-74
2023/12/09 07:51:54;;;;;;;89.80;48.90;;;;;;;-2.87;100.00;99099.16;109561;1251;60141;-75
2023/12/09 07:54:21;;;;;;;85.90;46.80;;;;;;;-2.75;100.00;99095.20;109503;1251;65109;-75
2023/12/09 07:56:47;;;;;;;83.10;48.20;;;;;;;-2.64;100.00;99094.20;108763;1251;1002420;-75
2023/12/09 07:59:14;;;;;;;85.50;45.40;;;;;;;-2.55;100.00;99093.39;109562;1251;58903;-75
2023/12/09 08:01:40;;;;;;;78.30;45.10;;;;;;;-2.45;100.00;99094.14;109576;1251;67053;-76
2023/12/09 08:04:07;;;;;;;74.30;42.60;;;;;;;-2.37;100.00;99091.27;109569;1251;60837;-75
2023/12/09 08:06:34;;;;;;;83.40;46.20;;;;;;;-2.33;100.00;99090.51;109511;1251;65158;-75
2023/12/09 08:09:00;;;;;;;79.60;44.80;;;;;;;-2.27;100.00;99090.59;109310;1251;59123;-75
2023/12/09 08:11:27;;;;;;;86.30;47.40;;;;;;;-2.19;100.00;99085.95;109522;1251;59009;-76
2023/12/09 08:13:53;;;;;;;85.20;49.10;;;;;;;-2.06;100.00;99083.68;109587;1251;64806;-75
2023/12/09 08:16:20;;;;;;;84.60;47.40;;;;;;;-1.90;100.00;99086.94;109591;1251;61203;-75
2023/12/09 08:18:48;;;;;;;106.10;60.60;;;;;;;-1.72;100.00;99086.13;109556;1251;63243;-76
2023/12/09 08:21:14;;;;;;;92.70;53.90;;;;;;;-1.58;100.00;99087.48;109570;1251;58941;-75
2023/12/09 08:23:41;;;;;;;103.20;67.50;;;;;;;-1.50;100.00;99091.17;109546;1251;58888;-75
2023/12/09 08:26:07;;;;;;;93.40;60.60;;;;;;;-1.44;100.00;99088.11;109603;1251;66950;-75
2023/12/09 08:28:34;;;;;;;94.20;58.30;;;;;;;-1.38;100.00;99088.36;109600;1251;61284;-75
2023/12/09 08:31:03;;;;;;;86.90;52.50;;;;;;;-1.31;100.00;99085.97;109520;1251;64093;-77
2023/12/09 08:33:30;;;;;;;82.60;50.80;;;;;;;-1.20;100.00;99083.51;109573;1251;58971;-77
2023/12/09 08:35:57;;;;;;;87.00;51.80;;;;;;;-1.09;100.00;99084.88;109571;1251;58873;-75
2023/12/09 08:38:23;;;;;;;93.70;61.30;;;;;;;-0.96;100.00;99084.63;109575;1251;66940;-75
2023/12/09 08:40:52;;;;;;;92.00;55.20;;;;;;;-0.80;100.00;99079.42;109511;1251;61029;-76
2023/12/09 08:43:18;;;;;;;98.50;57.10;;;;;;;-0.65;100.00;99079.34;109535;1251;64074;-74
2023/12/09 08:45:45;;;;;;;86.20;57.30;;;;;;;-0.55;100.00;99082.95;109521;1251;59502;-75
2023/12/09 08:48:12;;;;;;;78.20;50.60;;;;;;;-0.51;100.00;99084.79;109538;1251;58889;-75
2023/12/09 08:50:38;;;;;;;76.50;49.60;;;;;;;-0.47;100.00;99086.45;109616;1251;67008;-76
2023/12/09 08:53:05;;;;;;;77.20;51.10;;;;;;;-0.38;100.00;99089.23;109552;1250;60990;-75
2023/12/09 08:55:32;;;;;;;80.60;54.40;;;;;;;-0.31;100.00;99088.90;109535;1251;65324;-75
2023/12/09 08:57:58;;;;;;;80.20;50.50;;;;;;;-0.24;100.00;99088.93;109563;1251;59391;-76
2023/12/09 09:00:28;;;;;;;81.20;50.30;;;;;;;-0.19;100.00;99089.00;109561;1251;59034;-75
2023/12/09 09:02:55;;;;;;;77.10;47.00;;;;;;;-0.16;100.00;99088.77;109614;1251;66834;-76
2023/12/09 09:05:22;;;;;;;80.80;48.50;;;;;;;-0.17;100.00;99084.93;109569;1251;60084;-75
2023/12/09 09:07:49;;;;;;;79.10;49.10;;;;;;;-0.20;100.00;99087.80;109562;1251;65054;-75
2023/12/09 09:10:18;;;;;;;77.50;47.60;;;;;;;-0.22;100.00;99087.66;109581;1251;59019;-75
2023/12/09 09:12:46;;;;;;;84.40;49.40;;;;;;;-0.20;100.00;99085.52;109593;1251;59239;-74
2023/12/09 09:15:15;;;;;;;84.60;51.00;;;;;;;-0.22;100.00;99079.98;109567;1250;65688;-75
2023/12/09 09:17:41;;;;;;;89.50;52.60;;;;;;;-0.23;100.00;99078.78;109383;1251;60054;-75
2023/12/09 09:20:10;;;;;;;80.30;51.40;;;;;;;-0.22;100.00;99077.88;109569;1251;64826;-75
2023/12/09 09:22:37;;;;;;;78.80;48.70;;;;;;;-0.21;100.00;99079.44;109244;1251;59090;-75
2023/12/09 09:25:04;;;;;;;78.20;48.80;;;;;;;-0.24;100.00;99079.16;109545;1251;59015;-74
2023/12/09 09:27:31;;;;;;;115.60;66.80;;;;;;;-0.24;100.00;99072.69;109250;1251;67039;-75
2023/12/09 09:29:57;;;;;;;85.00;51.40;;;;;;;-0.22;100.00;99066.38;109351;1251;60315;-75
2023/12/09 09:32:24;;;;;;;90.60;56.70;;;;;;;-0.23;100.00;99067.60;108770;1251;1002504;-75
2023/12/09 09:34:50;;;;;;;89.50;56.60;;;;;;;-0.23;100.00;99066.39;109534;1251;58981;-75
2023/12/09 09:37:17;;;;;;;84.20;53.40;;;;;;;-0.22;100.00;99067.06;109547;1251;59029;-75
2023/12/09 09:39:44;;;;;;;91.30;54.50;;;;;;;-0.18;100.00;99061.04;109279;1251;66957;-75
2023/12/09 09:42:37;;;;;;;82.10;49.80;;;;;;;-0.15;100.00;99059.23;109602;1251;61043;-75
2023/12/09 09:45:23;;;;;;;84.30;53.20;;;;;;;-0.17;100.00;99061.02;108832;1252;1003433;-75
2023/12/09 09:47:55;;;;;;;81.00;52.40;;;;;;;-0.24;100.00;99065.01;109563;1251;59096;-74
2023/12/09 09:50:26;;;;;;;89.50;56.70;;;;;;;-0.26;100.00;99065.58;109595;1251;58844;-74
2023/12/09 09:52:53;;;;;;;79.30;54.10;;;;;;;-0.26;100.00;99067.84;109554;1250;65975;-75
2023/12/09 09:55:22;;;;;;;78.10;48.30;;;;;;;-0.21;100.00;99062.50;109541;1250;61046;-75
2023/12/09 09:57:49;;;;;;;84.20;53.40;;;;;;;-0.18;100.00;99055.64;109609;1251;64041;-75
2023/12/09 10:00:19;;;;;;;81.30;53.30;;;;;;;-0.16;100.00;99056.28;109541;1251;58976;-76
2023/12/09 10:02:48;;;;;;;93.60;56.20;;;;;;;-0.13;100.00;99053.41;109601;1251;58848;-76
2023/12/09 10:05:17;;;;;;;84.80;52.90;;;;;;;-0.09;100.00;99054.52;109535;1255;65953;-76
2023/12/09 10:07:44;;;;;;;92.00;56.50;;;;;;;-0.07;100.00;99046.45;109566;1251;59031;-76
2023/12/09 10:10:13;;;;;;;99.80;63.50;;;;;;;-0.05;100.00;99040.64;109555;1251;65232;-76
2023/12/09 10:12:40;;;;;;;88.70;56.80;;;;;;;-0.07;100.00;99037.55;109528;1251;58957;-76
2023/12/09 10:15:07;;;;;;;87.10;54.80;;;;;;;-0.06;100.00;99035.78;109582;1251;59047;-76
2023/12/09 10:17:34;;;;;;;88.30;55.10;;;;;;;-0.02;100.00;99027.84;109383;1251;67238;-76
2023/12/09 10:20:02;;;;;;;84.30;53.50;;;;;;;0.05;100.00;99021.73;109332;1251;60069;-75
2023/12/09 10:22:29;;;;;;;78.90;50.60;;;;;;;0.12;100.00;99020.52;109575;1251;65095;-75
2023/12/09 10:24:55;;;;;;;87.30;54.50;;;;;;;0.13;100.00;99016.81;109542;1251;59399;-76
2023/12/09 10:27:24;;;;;;;83.20;54.70;;;;;;;0.18;100.00;99004.48;109595;1251;59018;-75
2023/12/09 10:29:58;;;;;;;83.00;53.70;;;;;;;0.27;100.00;99002.50;109597;1251;66995;-75
2023/12/09 10:32:26;;;;;;;85.60;54.40;;;;;;;0.34;100.00;99002.86;109601;1251;60128;-75
2023/12/09 10:34:53;;;;;;;92.90;55.30;;;;;;;0.45;100.00;99007.46;109519;1251;63793;-76
2023/12/09 10:37:20;;;;;;;86.70;53.40;;;;;;;0.54;100.00;99013.52;109531;1251;58980;-76
2023/12/09 10:39:50;;;;;;;92.30;56.60;;;;;;;0.55;100.00;99020.12;109578;1251;59195;-75
2023/12/09 10:42:16;;;;;;;80.10;52.90;;;;;;;0.58;100.00;99019.20;109593;1251;67169;-75
2023/12/09 10:44:43;;;;;;;85.80;53.00;;;;;;;0.60;100.00;99018.95;109618;1251;60018;-76
2023/12/09 10:47:10;;;;;;;85.40;53.20;;;;;;;0.62;100.00;99015.58;109558;1251;65011;-76
2023/12/09 10:49:36;;;;;;;102.60;70.50;;;;;;;0.69;100.00;99014.54;109540;1251;59115;-75
2023/12/09 10:52:04;;;;;;;98.20;63.40;;;;;;;0.74;100.00;99012.65;108042;1251;1002698;-75
2023/12/09 10:54:31;;;;;;;98.40;68.50;;;;;;;0.79;100.00;99009.55;109599;1251;67136;-76
2023/12/09 10:56:58;;;;;;;86.40;56.60;;;;;;;0.85;100.00;99006.75;109615;1251;61137;-75
2023/12/09 10:59:27;;;;;;;84.80;56.70;;;;;;;0.87;100.00;99008.97;109533;1251;63720;-75